Time;durP1;ratioP1;P1;durP2;ratioP2;P2;SDS_P1;SDS_P2;PMS_P1;PMS_P2;Temp;Humidity;BMP_temperature;BMP_pressure;BME280_temperature;BME280_humidity;BME280_pressure;Samples;Min_cycle;Max_cycle;Signal;HPM_P1;HPM_P2
2021/03/10 06:00:46;;;;;;;5.43;0.75;;;;;;;;;;5070542;27;20407;-63
2021/03/10 06:03:16;;;;;;;1.75;1.42;;;;;;;;;;5072463;28;20063;-63
2021/03/10 06:05:43;;;;;;;5.38;3.00;;;;;;;;;;5068913;28;20119;-63
2021/03/10 06:08:15;;;;;;;1.75;1.27;;;;;;;;;;5069091;28;20025;-63
2021/03/10 06:10:45;;;;;;;3.40;1.83;;;;;;;;;;5069070;28;20082;-63
2021/03/10 06:13:18;;;;;;;3.47;1.10;;;;;;;;;;5068024;28;20039;-64
2021/03/10 06:15:44;;;;;;;3.30;1.63;;;;;;;;;;5066190;28;20514;-63
2021/03/10 06:18:21;;;;;;;4.85;1.75;;;;;;;;;;5067762;28;20434;-61
2021/03/10 06:20:47;;;;;;;2.78;1.73;;;;;;;;;;5067287;28;20054;-62
2021/03/10 06:23:16;;;;;;;4.68;2.63;;;;;;;;;;5066551;28;20074;-61
2021/03/10 06:25:43;;;;;;;3.92;2.15;;;;;;;;;;5064117;28;20036;-62
2021/03/10 06:28:09;;;;;;;6.20;2.53;;;;;;;;;;5066333;28;20035;-61
2021/03/10 06:30:40;;;;;;;2.58;1.73;;;;;;;;;;5065105;28;20037;-62
2021/03/10 06:33:07;;;;;;;3.70;0.73;;;;;;;;;;5067811;28;20108;-61
2021/03/10 06:35:34;;;;;;;5.43;2.10;;;;;;;;;;5067867;28;20047;-61
2021/03/10 06:38:26;;;;;;;2.33;0.95;;;;;;;;;;5068157;28;20044;-61
2021/03/10 06:40:53;;;;;;;3.70;2.13;;;;;;;;;;5064226;28;20059;-62
2021/03/10 06:43:20;;;;;;;3.58;1.45;;;;;;;;;;5066292;28;20036;-66
2021/03/10 06:45:47;;;;;;;25.90;2.47;;;;;;;;;;5063409;28;20086;-73
2021/03/10 06:48:16;;;;;;;2.95;1.35;;;;;;;;;;5071157;28;20135;-66
2021/03/10 06:50:43;;;;;;;5.00;2.70;;;;;;;;;;5068365;28;20116;-71
2021/03/10 06:53:09;;;;;;;1.25;0.60;;;;;;;;;;5065132;28;20012;-60
2021/03/10 06:55:39;;;;;;;1.95;1.60;;;;;;;;;;5068080;28;20032;-60
2021/03/10 06:58:06;;;;;;;3.03;1.95;;;;;;;;;;5066140;28;20036;-60
2021/03/10 07:00:32;;;;;;;8.40;2.28;;;;;;;;;;5061187;28;20041;-57
2021/03/10 07:02:58;;;;;;;12.48;1.75;;;;;;;;;;5050739;28;20031;-60
2021/03/10 07:05:25;;;;;;;2.45;2.22;;;;;;;;;;5050795;28;20593;-60
2021/03/10 07:07:52;;;;;;;0.75;0.73;;;;;;;;;;5050384;28;20048;-60
2021/03/10 07:10:18;;;;;;;0.30;0.30;;;;;;;;;;5051578;28;20036;-62
2021/03/10 07:12:44;;;;;;;4.53;2.28;;;;;;;;;;5051284;28;20032;-61
2021/03/10 07:15:10;;;;;;;0.73;0.57;;;;;;;;;;5047165;28;20028;-61
2021/03/10 07:17:37;;;;;;;0.90;0.90;;;;;;;;;;5050362;28;20107;-61
2021/03/10 07:20:04;;;;;;;6.75;2.20;;;;;;;;;;5050021;28;20071;-61
2021/03/10 07:22:32;;;;;;;1.25;1.15;;;;;;;;;;5048444;28;20056;-61
2021/03/10 07:25:15;;;;;;;3.13;1.20;;;;;;;;;;5049432;28;20104;-61
2021/03/10 07:27:52;;;;;;;3.88;0.57;;;;;;;;;;5050454;28;20451;-61
2021/03/10 07:30:18;;;;;;;1.92;1.08;;;;;;;;;;5047867;28;20029;-60
2021/03/10 07:32:45;;;;;;;9.07;2.15;;;;;;;;;;5050944;28;20445;-61
2021/03/10 07:35:12;;;;;;;0.88;0.32;;;;;;;;;;5050521;28;20486;-61
2021/03/10 07:37:52;;;;;;;1.00;0.55;;;;;;;;;;5047589;28;20028;-62
2021/03/10 07:40:18;;;;;;;8.68;1.80;;;;;;;;;;5045887;28;20032;-61
2021/03/10 07:42:54;;;;;;;2.83;1.10;;;;;;;;;;5083023;28;20382;-61
2021/03/10 07:45:21;;;;;;;7.43;3.10;;;;;;;;;;5051373;28;20017;-60
2021/03/10 07:47:57;;;;;;;3.95;2.67;;;;;;;;;;5051637;28;20125;-60
2021/03/10 07:50:24;;;;;;;2.78;1.88;;;;;;;;;;5056400;28;20037;-60
2021/03/10 07:52:54;;;;;;;0.75;0.75;;;;;;;;;;5056032;28;20032;-60
2021/03/10 07:55:20;;;;;;;3.33;1.60;;;;;;;;;;5050497;28;20037;-59
2021/03/10 07:57:50;;;;;;;8.25;1.55;;;;;;;;;;5042819;28;20021;-59
2021/03/10 08:00:17;;;;;;;4.32;2.22;;;;;;;;;;5051682;28;20049;-60
2021/03/10 08:02:44;;;;;;;1.40;0.60;;;;;;;;;;5049220;28;20021;-59
2021/03/10 08:05:24;;;;;;;5.40;3.25;;;;;;;;;;5050782;28;20036;-59
2021/03/10 08:08:04;;;;;;;1.45;1.35;;;;;;;;;;5048534;28;20021;-59
2021/03/10 08:10:31;;;;;;;2.35;1.33;;;;;;;;;;5048251;28;20037;-61
2021/03/10 08:12:57;;;;;;;1.38;1.27;;;;;;;;;;5048872;28;20032;-60
2021/03/10 08:15:23;;;;;;;3.15;1.95;;;;;;;;;;5050739;28;20056;-59
2021/03/10 08:17:50;;;;;;;2.33;2.13;;;;;;;;;;5050939;28;20031;-59
2021/03/10 08:20:16;;;;;;;3.05;1.25;;;;;;;;;;5048385;28;20033;-61
2021/03/10 08:22:42;;;;;;;8.70;2.95;;;;;;;;;;5047379;28;20021;-60
2021/03/10 08:25:13;;;;;;;1.48;0.70;;;;;;;;;;5049291;28;20025;-60
2021/03/10 08:27:41;;;;;;;2.17;0.63;;;;;;;;;;5049797;28;20896;-59
2021/03/10 08:30:09;;;;;;;4.47;2.83;;;;;;;;;;5056520;28;20029;-61
2021/03/10 08:32:35;;;;;;;5.10;1.42;;;;;;;;;;5049953;28;20029;-59
2021/03/10 08:35:09;;;;;;;1.17;0.98;;;;;;;;;;5047358;28;20107;-60
2021/03/10 08:37:35;;;;;;;2.38;2.17;;;;;;;;;;5049652;28;20033;-60
2021/03/10 08:40:02;;;;;;;1.10;1.00;;;;;;;;;;5048300;28;20437;-60
2021/03/10 08:42:28;;;;;;;3.75;1.80;;;;;;;;;;5050389;28;20056;-60
2021/03/10 08:44:54;;;;;;;2.53;1.20;;;;;;;;;;5049121;28;20440;-60
2021/03/10 08:47:24;;;;;;;10.82;2.75;;;;;;;;;;5049370;28;20051;-60
2021/03/10 08:49:57;;;;;;;2.17;0.95;;;;;;;;;;5047063;28;20498;-60
2021/03/10 08:52:24;;;;;;;2.47;1.38;;;;;;;;;;5048011;28;20033;-61
2021/03/10 08:54:52;;;;;;;2.35;1.65;;;;;;;;;;5048771;28;20107;-60
2021/03/10 08:57:20;;;;;;;0.30;0.30;;;;;;;;;;5050360;28;20368;-60
2021/03/10 08:59:46;;;;;;;2.15;1.13;;;;;;;;;;5049530;28;20048;-59
2021/03/10 09:02:13;;;;;;;5.10;2.83;;;;;;;;;;5048827;28;20029;-59
2021/03/10 09:04:47;;;;;;;3.83;2.10;;;;;;;;;;5048984;28;20025;-60
2021/03/10 09:07:16;;;;;;;1.27;0.65;;;;;;;;;;5049292;28;20025;-60
2021/03/10 09:09:43;;;;;;;1.65;1.00;;;;;;;;;;5047812;28;20028;-60
2021/03/10 09:12:09;;;;;;;13.02;2.63;;;;;;;;;;5051109;28;20380;-60
2021/03/10 09:14:55;;;;;;;4.53;1.95;;;;;;;;;;5049578;28;20403;-60
2021/03/10 09:17:31;;;;;;;8.65;1.08;;;;;;;;;;5049037;28;20456;-60
2021/03/10 09:19:59;;;;;;;4.38;1.83;;;;;;;;;;5049172;28;20494;-60
2021/03/10 09:22:27;;;;;;;1.73;0.98;;;;;;;;;;5031009;28;20098;-60
2021/03/10 09:24:57;;;;;;;2.28;1.30;;;;;;;;;;5048564;28;20083;-60
2021/03/10 09:27:26;;;;;;;2.33;0.77;;;;;;;;;;5047047;28;20032;-60
2021/03/10 09:29:53;;;;;;;2.50;0.80;;;;;;;;;;5028268;28;20032;-60
2021/03/10 09:32:20;;;;;;;4.10;1.30;;;;;;;;;;5045104;28;20033;-60
2021/03/10 09:34:47;;;;;;;1.92;0.70;;;;;;;;;;5045536;28;20472;-60
2021/03/10 09:37:14;;;;;;;1.58;1.15;;;;;;;;;;5045445;28;20470;-60
2021/03/10 09:39:48;;;;;;;9.00;2.53;;;;;;;;;;5043595;28;20028;-59
2021/03/10 09:42:17;;;;;;;0.70;0.47;;;;;;;;;;5041068;28;20392;-61
2021/03/10 09:44:56;;;;;;;0.30;0.30;;;;;;;;;;5048606;28;20060;-60
2021/03/10 09:47:31;;;;;;;2.03;1.27;;;;;;;;;;5046319;28;20029;-60
2021/03/10 09:50:03;;;;;;;7.22;1.95;;;;;;;;;;5047639;28;20045;-60
2021/03/10 09:52:37;;;;;;;5.47;2.00;;;;;;;;;;5045898;28;20032;-61
2021/03/10 09:55:11;;;;;;;0.65;0.65;;;;;;;;;;5048320;28;20127;-62
2021/03/10 09:57:38;;;;;;;1.58;1.48;;;;;;;;;;5047270;28;20103;-60
2021/03/10 10:00:18;;;;;;;3.60;1.90;;;;;;;;;;5048725;28;20072;-60
2021/03/10 10:02:48;;;;;;;2.28;1.17;;;;;;;;;;5048108;28;20571;-61
2021/03/10 10:05:21;;;;;;;0.88;0.77;;;;;;;;;;5044843;28;20035;-60
2021/03/10 10:07:47;;;;;;;2.00;1.02;;;;;;;;;;5046420;28;20086;-69
2021/03/10 10:10:13;;;;;;;3.13;1.67;;;;;;;;;;5047661;28;20029;-67
2021/03/10 10:12:48;;;;;;;3.90;1.45;;;;;;;;;;5044253;28;20029;-66
2021/03/10 10:15:18;;;;;;;6.57;1.70;;;;;;;;;;5047322;28;20435;-68
2021/03/10 10:17:46;;;;;;;3.05;1.65;;;;;;;;;;5047772;28;20037;-66
2021/03/10 10:20:15;;;;;;;10.90;1.23;;;;;;;;;;5047381;28;20483;-65
2021/03/10 10:22:42;;;;;;;2.65;1.20;;;;;;;;;;5048068;28;20051;-67
2021/03/10 10:25:08;;;;;;;0.93;0.73;;;;;;;;;;5048290;28;20040;-64
2021/03/10 10:27:38;;;;;;;2.88;1.10;;;;;;;;;;5045403;28;20106;-65
2021/03/10 10:30:04;;;;;;;1.05;0.88;;;;;;;;;;5049221;28;20044;-65
2021/03/10 10:32:36;;;;;;;5.75;1.15;;;;;;;;;;5047252;28;20021;-60
2021/03/10 10:35:03;;;;;;;1.52;0.98;;;;;;;;;;5048444;28;20065;-60
2021/03/10 10:37:29;;;;;;;4.63;2.42;;;;;;;;;;5051340;28;20025;-60
2021/03/10 10:40:03;;;;;;;4.95;1.33;;;;;;;;;;5046292;28;20029;-59
2021/03/10 10:42:30;;;;;;;2.17;1.00;;;;;;;;;;5050033;28;20036;-60
2021/03/10 10:44:58;;;;;;;2.80;1.33;;;;;;;;;;5051799;28;20032;-60
2021/03/10 10:47:27;;;;;;;6.28;1.15;;;;;;;;;;5051933;28;20540;-60
2021/03/10 10:50:06;;;;;;;0.50;0.40;;;;;;;;;;5049637;28;20037;-60
2021/03/10 10:52:36;;;;;;;2.28;1.40;;;;;;;;;;5048508;28;20017;-60
2021/03/10 10:55:04;;;;;;;2.65;1.17;;;;;;;;;;5051039;28;20120;-60
2021/03/10 10:57:30;;;;;;;2.15;0.90;;;;;;;;;;5051571;28;20451;-60
2021/03/10 10:59:58;;;;;;;1.48;0.90;;;;;;;;;;5051646;28;20076;-60
2021/03/10 11:02:25;;;;;;;0.00;0.00;;;;;;;;;;5050818;28;20116;-60
2021/03/10 11:04:59;;;;;;;3.10;1.08;;;;;;;;;;5051524;28;20044;-61
2021/03/10 11:07:26;;;;;;;0.88;0.70;;;;;;;;;;5052235;28;20040;-60
2021/03/10 11:09:57;;;;;;;0.28;0.28;;;;;;;;;;5058420;28;20036;-60
2021/03/10 11:12:24;;;;;;;5.32;0.73;;;;;;;;;;5051664;28;20017;-60
2021/03/10 11:14:57;;;;;;;0.70;0.60;;;;;;;;;;5051400;28;20463;-60
2021/03/10 11:17:43;;;;;;;0.80;0.75;;;;;;;;;;5050448;28;20057;-60
2021/03/10 11:20:13;;;;;;;2.63;1.40;;;;;;;;;;5050578;28;20108;-60
2021/03/10 11:22:39;;;;;;;0.82;0.60;;;;;;;;;;5051238;28;20033;-60
2021/03/10 11:25:10;;;;;;;0.68;0.68;;;;;;;;;;5050510;28;20020;-60
2021/03/10 11:27:37;;;;;;;1.40;0.93;;;;;;;;;;5048643;28;20032;-60
2021/03/10 11:30:09;;;;;;;0.80;0.60;;;;;;;;;;5051558;28;20517;-60
2021/03/10 11:32:39;;;;;;;1.23;0.68;;;;;;;;;;5049540;28;20068;-60
2021/03/10 11:35:06;;;;;;;1.13;0.63;;;;;;;;;;5051212;28;20025;-60
2021/03/10 11:37:32;;;;;;;0.45;0.45;;;;;;;;;;5049729;28;20025;-60
2021/03/10 11:39:59;;;;;;;0.30;0.30;;;;;;;;;;5049744;28;20494;-60
2021/03/10 11:42:25;;;;;;;0.55;0.55;;;;;;;;;;5051342;28;20024;-60
2021/03/10 11:44:52;;;;;;;0.82;0.82;;;;;;;;;;5051166;28;20036;-60
2021/03/10 11:47:18;;;;;;;5.32;0.85;;;;;;;;;;5050159;28;20032;-60
2021/03/10 11:49:44;;;;;;;2.05;1.00;;;;;;;;;;5049500;28;20040;-60
2021/03/10 11:52:10;;;;;;;0.43;0.40;;;;;;;;;;5050808;28;20025;-60
2021/03/10 11:54:36;;;;;;;0.73;0.73;;;;;;;;;;5050339;28;20449;-60
2021/03/10 11:57:02;;;;;;;0.95;0.60;;;;;;;;;;5051674;28;20029;-60
2021/03/10 11:59:29;;;;;;;1.65;1.55;;;;;;;;;;5049723;28;20040;-61
2021/03/10 12:02:05;;;;;;;0.52;0.52;;;;;;;;;;5049714;28;20047;-60
2021/03/10 12:04:36;;;;;;;0.60;0.60;;;;;;;;;;5049410;28;20032;-60
2021/03/10 12:07:03;;;;;;;0.35;0.30;;;;;;;;;;5050100;28;20033;-60
2021/03/10 12:09:30;;;;;;;0.65;0.47;;;;;;;;;;5050202;28;20134;-60
2021/03/10 12:11:56;;;;;;;0.40;0.32;;;;;;;;;;5051287;28;20474;-60
2021/03/10 12:14:25;;;;;;;1.15;0.50;;;;;;;;;;5049725;28;20020;-59
2021/03/10 12:16:51;;;;;;;0.38;0.38;;;;;;;;;;5049695;28;20059;-60
2021/03/10 12:19:18;;;;;;;0.52;0.40;;;;;;;;;;5048120;28;20048;-60
2021/03/10 12:21:44;;;;;;;0.80;0.32;;;;;;;;;;5050231;28;20061;-60
2021/03/10 12:24:10;;;;;;;0.82;0.47;;;;;;;;;;5051802;28;20096;-59
2021/03/10 12:26:37;;;;;;;0.93;0.52;;;;;;;;;;5050173;28;20047;-59
2021/03/10 12:29:03;;;;;;;0.57;0.50;;;;;;;;;;5050074;28;20028;-60
2021/03/10 12:31:29;;;;;;;0.20;0.20;;;;;;;;;;5049166;28;20037;-62
2021/03/10 12:33:55;;;;;;;0.30;0.30;;;;;;;;;;5049399;28;20031;-61
2021/03/10 12:36:21;;;;;;;0.20;0.20;;;;;;;;;;5050859;28;20017;-61
2021/03/10 12:38:47;;;;;;;0.20;0.20;;;;;;;;;;5050762;28;20655;-61
2021/03/10 12:41:13;;;;;;;0.63;0.63;;;;;;;;;;5047732;28;20025;-61
2021/03/10 12:43:39;;;;;;;0.20;0.20;;;;;;;;;;5050235;28;20044;-61
2021/03/10 12:46:06;;;;;;;0.45;0.45;;;;;;;;;;5044398;28;20056;-61
2021/03/10 12:48:32;;;;;;;0.28;0.28;;;;;;;;;;5050713;28;20056;-61
2021/03/10 12:50:58;;;;;;;0.10;0.10;;;;;;;;;;5050565;28;20036;-61
2021/03/10 12:53:24;;;;;;;0.40;0.20;;;;;;;;;;5049090;28;20491;-61
2021/03/10 12:55:50;;;;;;;0.50;0.50;;;;;;;;;;5049431;28;20061;-61
2021/03/10 12:58:16;;;;;;;0.47;0.45;;;;;;;;;;5045928;28;20024;-61
2021/03/10 13:00:42;;;;;;;1.23;0.30;;;;;;;;;;5048977;28;20056;-61
2021/03/10 13:03:09;;;;;;;1.02;0.40;;;;;;;;;;5050058;28;20418;-61
2021/03/10 13:05:36;;;;;;;0.20;0.20;;;;;;;;;;5048707;28;20037;-61
2021/03/10 13:08:03;;;;;;;0.10;0.10;;;;;;;;;;5048650;28;20021;-61
2021/03/10 13:10:30;;;;;;;0.32;0.30;;;;;;;;;;5049010;28;20032;-61
2021/03/10 13:12:56;;;;;;;0.30;0.30;;;;;;;;;;5049233;28;20104;-61
2021/03/10 13:15:22;;;;;;;0.70;0.45;;;;;;;;;;5048840;28;20029;-60
2021/03/10 13:17:48;;;;;;;0.32;0.28;;;;;;;;;;5049557;28;20021;-62
2021/03/10 13:20:14;;;;;;;0.38;0.30;;;;;;;;;;5047689;28;20082;-61
2021/03/10 13:22:41;;;;;;;0.22;0.22;;;;;;;;;;5047599;28;20028;-61
2021/03/10 13:25:08;;;;;;;0.10;0.10;;;;;;;;;;5048612;28;20029;-61
2021/03/10 13:27:34;;;;;;;0.10;0.10;;;;;;;;;;5049397;28;20058;-61
2021/03/10 13:30:00;;;;;;;0.13;0.13;;;;;;;;;;5064844;28;20037;-62
2021/03/10 13:32:26;;;;;;;0.30;0.30;;;;;;;;;;5048430;28;20025;-61
2021/03/10 13:34:52;;;;;;;0.35;0.30;;;;;;;;;;5047894;28;20084;-61
2021/03/10 13:37:18;;;;;;;0.25;0.22;;;;;;;;;;5048002;28;20051;-60
2021/03/10 13:39:44;;;;;;;0.30;0.30;;;;;;;;;;5047347;28;20028;-62
2021/03/10 13:42:10;;;;;;;0.30;0.30;;;;;;;;;;5048205;28;20068;-64
2021/03/10 13:44:36;;;;;;;0.60;0.60;;;;;;;;;;5048052;28;20033;-64
2021/03/10 13:47:03;;;;;;;0.10;0.10;;;;;;;;;;5046937;28;20095;-63
2021/03/10 13:49:31;;;;;;;0.13;0.10;;;;;;;;;;5046988;28;20095;-64
2021/03/10 13:51:58;;;;;;;0.20;0.20;;;;;;;;;;5047845;28;20025;-70
2021/03/10 13:54:24;;;;;;;0.20;0.20;;;;;;;;;;5048349;28;20032;-64
2021/03/10 13:56:50;;;;;;;1.55;0.60;;;;;;;;;;5048504;28;20041;-68
2021/03/10 13:59:16;;;;;;;0.20;0.20;;;;;;;;;;5048332;28;20056;-62
2021/03/10 14:01:42;;;;;;;0.13;0.13;;;;;;;;;;5047394;28;20033;-62
2021/03/10 14:04:08;;;;;;;0.20;0.20;;;;;;;;;;5044328;28;20501;-59
2021/03/10 14:06:35;;;;;;;0.28;0.20;;;;;;;;;;5047048;28;20104;-65
2021/03/10 14:09:01;;;;;;;0.10;0.10;;;;;;;;;;5048904;28;20508;-74
2021/03/10 14:11:27;;;;;;;0.10;0.10;;;;;;;;;;5048630;28;20036;-70
2021/03/10 14:13:53;;;;;;;0.10;0.10;;;;;;;;;;5051809;28;20407;-73
2021/03/10 14:16:19;;;;;;;0.13;0.13;;;;;;;;;;5051337;28;20033;-65
2021/03/10 14:18:45;;;;;;;0.20;0.20;;;;;;;;;;5048087;28;20009;-66
2021/03/10 14:21:11;;;;;;;0.10;0.10;;;;;;;;;;5052902;28;20043;-61
2021/03/10 14:23:38;;;;;;;0.20;0.20;;;;;;;;;;5050374;28;20036;-60
2021/03/10 14:26:04;;;;;;;0.25;0.10;;;;;;;;;;5050491;28;20078;-61
2021/03/10 14:28:30;;;;;;;0.52;0.30;;;;;;;;;;5050093;28;20056;-61
2021/03/10 14:30:56;;;;;;;0.03;0.03;;;;;;;;;;5049646;28;20368;-61
2021/03/10 14:33:23;;;;;;;0.10;0.10;;;;;;;;;;5052361;28;20398;-61
2021/03/10 14:35:49;;;;;;;0.10;0.10;;;;;;;;;;5049429;28;20047;-61
2021/03/10 14:38:15;;;;;;;0.13;0.13;;;;;;;;;;5050287;28;20032;-60
2021/03/10 14:40:41;;;;;;;2.75;0.40;;;;;;;;;;5050791;28;20035;-60
2021/03/10 14:43:08;;;;;;;0.10;0.10;;;;;;;;;;5051111;28;20025;-62
2021/03/10 14:45:34;;;;;;;0.28;0.20;;;;;;;;;;5049896;28;20021;-61
2021/03/10 14:48:01;;;;;;;0.10;0.10;;;;;;;;;;5046996;28;20027;-60
2021/03/10 14:50:27;;;;;;;0.10;0.10;;;;;;;;;;5047613;28;20036;-61
2021/03/10 14:52:53;;;;;;;0.22;0.20;;;;;;;;;;5047349;28;20124;-61
2021/03/10 14:55:19;;;;;;;0.30;0.15;;;;;;;;;;5049757;28;20029;-61
2021/03/10 14:57:46;;;;;;;0.10;0.10;;;;;;;;;;5049780;28;20477;-61
2021/03/10 15:00:13;;;;;;;0.10;0.10;;;;;;;;;;5051969;28;20442;-61
2021/03/10 15:02:39;;;;;;;0.20;0.20;;;;;;;;;;5049342;28;20074;-60
2021/03/10 15:05:10;;;;;;;0.10;0.10;;;;;;;;;;5051353;28;20406;-61
2021/03/10 15:07:37;;;;;;;0.00;0.00;;;;;;;;;;5051263;28;20017;-60
2021/03/10 15:10:03;;;;;;;0.30;0.10;;;;;;;;;;5051045;28;20033;-61
2021/03/10 15:12:30;;;;;;;0.13;0.13;;;;;;;;;;5051728;28;20147;-61
2021/03/10 15:14:56;;;;;;;0.10;0.10;;;;;;;;;;5050459;28;20384;-61
2021/03/10 15:17:23;;;;;;;0.10;0.10;;;;;;;;;;5043507;28;20029;-61
2021/03/10 15:19:49;;;;;;;0.30;0.30;;;;;;;;;;5041699;28;20017;-61
2021/03/10 15:22:15;;;;;;;0.10;0.10;;;;;;;;;;5050895;28;20036;-61
2021/03/10 15:24:41;;;;;;;0.00;0.00;;;;;;;;;;5050088;28;20021;-61
2021/03/10 15:27:08;;;;;;;0.00;0.00;;;;;;;;;;5051010;28;20033;-61
2021/03/10 15:29:34;;;;;;;0.22;0.20;;;;;;;;;;5050689;28;20045;-62
2021/03/10 15:32:01;;;;;;;0.10;0.10;;;;;;;;;;5048964;28;20035;-62
2021/03/10 15:34:27;;;;;;;0.10;0.10;;;;;;;;;;5048920;28;20033;-62
2021/03/10 15:36:53;;;;;;;0.10;0.10;;;;;;;;;;5047640;28;20033;-60
2021/03/10 15:39:19;;;;;;;0.10;0.10;;;;;;;;;;5050555;28;20059;-62
2021/03/10 15:41:46;;;;;;;0.10;0.10;;;;;;;;;;5049805;28;20013;-61
2021/03/10 15:44:12;;;;;;;0.00;0.00;;;;;;;;;;5049072;28;20032;-60
2021/03/10 15:46:38;;;;;;;0.20;0.20;;;;;;;;;;5048031;28;20064;-60
2021/03/10 15:49:04;;;;;;;0.05;0.05;;;;;;;;;;5048532;28;20530;-60
2021/03/10 15:51:30;;;;;;;0.10;0.10;;;;;;;;;;5051244;28;20064;-60
2021/03/10 15:53:56;;;;;;;0.30;0.20;;;;;;;;;;5050189;28;20503;-60
2021/03/10 15:56:22;;;;;;;0.95;0.30;;;;;;;;;;5049940;28;20506;-62
2021/03/10 15:58:51;;;;;;;0.20;0.20;;;;;;;;;;5048419;28;20048;-60
2021/03/10 16:01:18;;;;;;;0.00;0.00;;;;;;;;;;5042682;28;20063;-61
2021/03/10 16:03:44;;;;;;;0.45;0.40;;;;;;;;;;5047486;28;20013;-60
2021/03/10 16:06:10;;;;;;;0.17;0.17;;;;;;;;;;5046721;28;20043;-60
2021/03/10 16:08:37;;;;;;;0.20;0.20;;;;;;;;;;5040053;28;20041;-60
2021/03/10 16:11:03;;;;;;;0.10;0.10;;;;;;;;;;5034889;28;20096;-60
2021/03/10 16:13:29;;;;;;;0.00;0.00;;;;;;;;;;5034993;28;20503;-60
2021/03/10 16:15:55;;;;;;;0.00;0.00;;;;;;;;;;5030847;28;20146;-60
2021/03/10 16:18:21;;;;;;;0.30;0.20;;;;;;;;;;5039776;28;20027;-60
2021/03/10 16:20:47;;;;;;;0.30;0.30;;;;;;;;;;5034805;28;20380;-59
2021/03/10 16:23:13;;;;;;;0.57;0.57;;;;;;;;;;5036128;28;20037;-60
2021/03/10 16:25:39;;;;;;;0.75;0.20;;;;;;;;;;5039291;28;20254;-59
2021/03/10 16:28:06;;;;;;;0.00;0.00;;;;;;;;;;5039079;28;20117;-60
2021/03/10 16:30:32;;;;;;;0.10;0.10;;;;;;;;;;5042200;28;20041;-60
2021/03/10 16:32:58;;;;;;;0.10;0.10;;;;;;;;;;5037202;28;20032;-59
2021/03/10 16:35:24;;;;;;;0.13;0.10;;;;;;;;;;5036569;28;20507;-59
2021/03/10 16:37:50;;;;;;;0.00;0.00;;;;;;;;;;5040834;28;20028;-60
2021/03/10 16:40:17;;;;;;;1.00;0.47;;;;;;;;;;5044443;28;20033;-60
2021/03/10 16:42:43;;;;;;;0.10;0.10;;;;;;;;;;5042913;28;20022;-60
2021/03/10 16:45:09;;;;;;;0.10;0.10;;;;;;;;;;5038889;28;20044;-59
2021/03/10 16:47:35;;;;;;;0.22;0.10;;;;;;;;;;5035070;28;20032;-60
2021/03/10 16:50:01;;;;;;;0.10;0.10;;;;;;;;;;5039672;28;20065;-60
2021/03/10 16:52:28;;;;;;;0.00;0.00;;;;;;;;;;5032115;28;20026;-59
2021/03/10 16:54:54;;;;;;;0.10;0.10;;;;;;;;;;5040971;28;20115;-60
2021/03/10 16:57:20;;;;;;;0.20;0.20;;;;;;;;;;5032333;28;20022;-60
2021/03/10 16:59:46;;;;;;;0.10;0.10;;;;;;;;;;5041824;28;20423;-59
2021/03/10 17:02:13;;;;;;;0.08;0.08;;;;;;;;;;5043328;28;20028;-59
2021/03/10 17:04:40;;;;;;;0.20;0.10;;;;;;;;;;5039180;28;20407;-60
2021/03/10 17:07:06;;;;;;;0.03;0.00;;;;;;;;;;5029756;28;20033;-60
2021/03/10 17:09:33;;;;;;;0.38;0.30;;;;;;;;;;5041838;28;20040;-59
2021/03/10 17:11:59;;;;;;;0.22;0.08;;;;;;;;;;5042900;28;20025;-60
2021/03/10 17:14:25;;;;;;;1.20;1.10;;;;;;;;;;5036587;28;20029;-59
2021/03/10 17:16:52;;;;;;;0.10;0.08;;;;;;;;;;5038125;28;20021;-60
2021/03/10 17:19:19;;;;;;;0.32;0.32;;;;;;;;;;5038415;28;20108;-60
2021/03/10 17:21:45;;;;;;;0.52;0.30;;;;;;;;;;5041911;28;20071;-60
2021/03/10 17:24:12;;;;;;;0.30;0.10;;;;;;;;;;5049576;28;20037;-60
2021/03/10 17:26:38;;;;;;;0.10;0.10;;;;;;;;;;5046624;28;20021;-60
2021/03/10 17:29:04;;;;;;;0.30;0.10;;;;;;;;;;5046481;28;20025;-61
2021/03/10 17:31:30;;;;;;;0.00;0.00;;;;;;;;;;5047712;28;20543;-60
2021/03/10 17:33:56;;;;;;;0.00;0.00;;;;;;;;;;5040567;28;20045;-59
2021/03/10 17:36:22;;;;;;;0.00;0.00;;;;;;;;;;5042510;28;20335;-61
2021/03/10 17:38:48;;;;;;;0.00;0.00;;;;;;;;;;5047075;28;20029;-61
2021/03/10 17:41:14;;;;;;;2.92;0.73;;;;;;;;;;5050901;28;20028;-60
2021/03/10 17:43:41;;;;;;;0.52;0.20;;;;;;;;;;5057679;28;20052;-60
2021/03/10 17:46:09;;;;;;;0.20;0.20;;;;;;;;;;5046376;28;20026;-60
2021/03/10 17:48:35;;;;;;;0.25;0.10;;;;;;;;;;5048953;28;20049;-60
2021/03/10 17:51:01;;;;;;;0.68;0.08;;;;;;;;;;5050809;28;20047;-60
2021/03/10 17:53:27;;;;;;;0.10;0.10;;;;;;;;;;5054755;28;20035;-60
2021/03/10 17:55:53;;;;;;;0.32;0.10;;;;;;;;;;5058255;28;20025;-61
2021/03/10 17:58:19;;;;;;;2.10;0.75;;;;;;;;;;5046957;28;20033;-61
2021/03/10 18:00:46;;;;;;;0.70;0.52;;;;;;;;;;5048142;28;20400;-61
2021/03/10 18:03:12;;;;;;;0.10;0.10;;;;;;;;;;5050085;28;20549;-60
2021/03/10 18:05:38;;;;;;;0.13;0.10;;;;;;;;;;5046877;28;20025;-60
2021/03/10 18:08:04;;;;;;;0.10;0.10;;;;;;;;;;5047549;28;20483;-60
2021/03/10 18:10:30;;;;;;;1.35;0.20;;;;;;;;;;5046864;28;20025;-62
2021/03/10 18:12:56;;;;;;;1.15;0.63;;;;;;;;;;5047038;28;20087;-58
2021/03/10 18:15:22;;;;;;;0.32;0.13;;;;;;;;;;5050402;28;20036;-61
2021/03/10 18:17:49;;;;;;;0.13;0.13;;;;;;;;;;5047362;28;20033;-59
2021/03/10 18:20:15;;;;;;;1.52;0.30;;;;;;;;;;5045981;28;20108;-62
2021/03/10 18:22:41;;;;;;;0.40;0.10;;;;;;;;;;5046916;28;20025;-60
2021/03/10 18:25:08;;;;;;;0.95;0.60;;;;;;;;;;5046609;28;20590;-60
2021/03/10 18:27:34;;;;;;;2.35;0.47;;;;;;;;;;5049030;28;20037;-59
2021/03/10 18:30:00;;;;;;;0.65;0.60;;;;;;;;;;5047791;28;20041;-67
2021/03/10 18:32:27;;;;;;;3.03;0.15;;;;;;;;;;5046514;28;20025;-62
2021/03/10 18:34:53;;;;;;;0.35;0.35;;;;;;;;;;5046190;28;20039;-61
2021/03/10 18:37:19;;;;;;;0.30;0.10;;;;;;;;;;5046243;28;20025;-60
2021/03/10 18:39:45;;;;;;;2.88;0.50;;;;;;;;;;5047011;28;20068;-60
2021/03/10 18:42:12;;;;;;;0.70;0.70;;;;;;;;;;5048929;28;20032;-60
2021/03/10 18:44:38;;;;;;;0.65;0.55;;;;;;;;;;5048306;28;20025;-60
2021/03/10 18:47:05;;;;;;;0.17;0.17;;;;;;;;;;5046399;28;20031;-60
2021/03/10 18:49:31;;;;;;;0.88;0.10;;;;;;;;;;5048078;28;20436;-61
2021/03/10 18:51:57;;;;;;;1.85;0.88;;;;;;;;;;5048619;28;20029;-60
2021/03/10 18:54:23;;;;;;;0.28;0.10;;;;;;;;;;5049303;28;20021;-60
2021/03/10 18:56:50;;;;;;;3.58;2.03;;;;;;;;;;5048527;28;20087;-60
2021/03/10 18:59:17;;;;;;;1.63;0.35;;;;;;;;;;5049703;28;20053;-61
2021/03/10 19:01:44;;;;;;;1.73;0.52;;;;;;;;;;5049647;28;20064;-60
2021/03/10 19:04:10;;;;;;;1.08;0.43;;;;;;;;;;5050068;28;20450;-61
2021/03/10 19:06:36;;;;;;;0.15;0.13;;;;;;;;;;5052506;28;20116;-60
2021/03/10 19:09:03;;;;;;;0.00;0.00;;;;;;;;;;5048301;28;20112;-61
2021/03/10 19:11:29;;;;;;;0.63;0.30;;;;;;;;;;5045528;28;20033;-61
2021/03/10 19:13:55;;;;;;;2.72;0.50;;;;;;;;;;5043964;28;20047;-60
2021/03/10 19:16:21;;;;;;;0.52;0.17;;;;;;;;;;5043099;28;20036;-61
2021/03/10 19:18:47;;;;;;;2.25;0.73;;;;;;;;;;5043136;28;20399;-60
2021/03/10 19:21:13;;;;;;;0.25;0.00;;;;;;;;;;5047979;28;20039;-61
2021/03/10 19:23:40;;;;;;;1.48;0.75;;;;;;;;;;5047918;28;20033;-60
2021/03/10 19:26:06;;;;;;;0.50;0.13;;;;;;;;;;5048754;28;20033;-60
2021/03/10 19:28:32;;;;;;;0.38;0.20;;;;;;;;;;5048045;28;20032;-60
2021/03/10 19:31:00;;;;;;;2.13;0.50;;;;;;;;;;5049136;28;20032;-60
2021/03/10 19:33:27;;;;;;;0.43;0.30;;;;;;;;;;5051913;28;20029;-61
2021/03/10 19:35:53;;;;;;;1.20;0.43;;;;;;;;;;5048330;28;20028;-60
2021/03/10 19:38:19;;;;;;;2.03;0.10;;;;;;;;;;5052427;28;20535;-61
2021/03/10 19:40:45;;;;;;;0.35;0.30;;;;;;;;;;5049472;28;20036;-60
2021/03/10 19:43:12;;;;;;;0.10;0.00;;;;;;;;;;5053788;28;20021;-60
2021/03/10 19:45:38;;;;;;;0.70;0.25;;;;;;;;;;5039586;28;20044;-60
2021/03/10 19:48:05;;;;;;;0.85;0.20;;;;;;;;;;5048631;28;20057;-60
2021/03/10 19:50:34;;;;;;;5.57;0.32;;;;;;;;;;5046351;28;20047;-60
2021/03/10 19:53:00;;;;;;;0.50;0.20;;;;;;;;;;5046515;28;20100;-60
2021/03/10 19:55:27;;;;;;;0.60;0.38;;;;;;;;;;5046790;28;20461;-60
2021/03/10 19:57:53;;;;;;;0.00;0.00;;;;;;;;;;5048126;28;20086;-60
2021/03/10 20:00:20;;;;;;;2.05;0.38;;;;;;;;;;5049662;28;20095;-60
2021/03/10 20:02:48;;;;;;;1.67;0.68;;;;;;;;;;5046990;28;20056;-60
2021/03/10 20:05:14;;;;;;;0.70;0.40;;;;;;;;;;5048804;28;20037;-60
2021/03/10 20:07:41;;;;;;;1.05;0.50;;;;;;;;;;5046549;28;20356;-60
2021/03/10 20:10:08;;;;;;;3.83;0.85;;;;;;;;;;5046586;28;20105;-60
2021/03/10 20:12:35;;;;;;;9.10;4.57;;;;;;;;;;5047417;28;20029;-60
2021/03/10 20:15:03;;;;;;;3.22;0.30;;;;;;;;;;5048001;28;20033;-60
2021/03/10 20:17:29;;;;;;;5.03;0.75;;;;;;;;;;5046132;28;20056;-61
2021/03/10 20:19:55;;;;;;;2.17;0.40;;;;;;;;;;5045940;28;20025;-60
2021/03/10 20:22:21;;;;;;;0.30;0.22;;;;;;;;;;5044827;28;20025;-60
2021/03/10 20:24:47;;;;;;;5.25;1.23;;;;;;;;;;5047070;28;20029;-60
2021/03/10 20:27:14;;;;;;;1.65;1.00;;;;;;;;;;5049167;28;20056;-60
2021/03/10 20:29:40;;;;;;;0.93;0.55;;;;;;;;;;5045842;28;20430;-60
2021/03/10 20:32:06;;;;;;;2.25;0.98;;;;;;;;;;5045784;28;20225;-60
2021/03/10 20:34:32;;;;;;;1.70;0.65;;;;;;;;;;5045331;28;20017;-60
2021/03/10 20:36:58;;;;;;;4.43;1.25;;;;;;;;;;5045740;28;20403;-60
2021/03/10 20:39:26;;;;;;;4.25;0.52;;;;;;;;;;5048369;28;20031;-60
2021/03/10 20:41:52;;;;;;;3.50;0.40;;;;;;;;;;5046465;28;20024;-60
2021/03/10 20:44:19;;;;;;;4.28;1.00;;;;;;;;;;5045350;28;20453;-60